sensor_id;sensor_type;location;lat;lon;timestamp;pressure;altitude;pressure_sealevel;temperature;humidity
55315;BME280;41619;42.816;23.226;2023-08-06T11:18:01;94364.66;;;25.42;43.94
55315;BME280;41619;42.816;23.226;2023-08-06T11:20:28;94367.19;;;25.60;43.89
55315;BME280;41619;42.816;23.226;2023-08-06T11:22:53;94369.00;;;25.78;43.71
55315;BME280;41619;42.816;23.226;2023-08-06T11:25:20;94361.63;;;26.01;43.85
55315;BME280;41619;42.816;23.226;2023-08-06T11:27:47;94355.97;;;26.21;43.55
55315;BME280;41619;42.816;23.226;2023-08-06T11:30:14;94353.94;;;26.42;43.46
55315;BME280;41619;42.816;23.226;2023-08-06T11:32:46;94354.56;;;26.57;42.52
55315;BME280;41619;42.816;23.226;2023-08-06T11:35:12;94353.91;;;26.68;42.27
55315;BME280;41619;42.816;23.226;2023-08-06T11:37:39;94353.28;;;26.84;41.95
55315;BME280;41619;42.816;23.226;2023-08-06T11:40:09;94350.16;;;27.02;42.12
55315;BME280;41619;42.816;23.226;2023-08-06T11:42:36;94341.56;;;27.17;41.87
55315;BME280;41619;42.816;23.226;2023-08-06T11:45:03;94338.09;;;27.33;41.45
55315;BME280;41619;42.816;23.226;2023-08-06T11:47:29;94341.00;;;27.50;41.79
55315;BME280;41619;42.816;23.226;2023-08-06T11:49:55;94336.50;;;27.69;41.78
55315;BME280;41619;42.816;23.226;2023-08-06T11:57:24;94329.03;;;28.20;41.31
55315;BME280;41619;42.816;23.226;2023-08-06T11:59:50;94316.56;;;28.32;40.82
55315;BME280;41619;42.816;23.226;2023-08-06T12:02:15;94319.13;;;28.42;41.10
55315;BME280;41619;42.816;23.226;2023-08-06T12:05:00;94320.41;;;28.41;40.32
55315;BME280;41619;42.816;23.226;2023-08-06T12:07:29;94322.19;;;28.44;40.81
55315;BME280;41619;42.816;23.226;2023-08-06T12:09:56;94324.78;;;28.47;40.39
55315;BME280;41619;42.816;23.226;2023-08-06T12:12:22;94320.44;;;28.52;39.52
55315;BME280;41619;42.816;23.226;2023-08-06T12:14:47;94323.25;;;28.57;39.26
55315;BME280;41619;42.816;23.226;2023-08-06T12:17:13;94325.78;;;28.61;38.80
55315;BME280;41619;42.816;23.226;2023-08-06T12:19:38;94321.22;;;28.63;38.44
55315;BME280;41619;42.816;23.226;2023-08-06T12:22:03;94316.84;;;28.57;38.86
55315;BME280;41619;42.816;23.226;2023-08-06T12:24:29;94321.72;;;28.51;38.84
55315;BME280;41619;42.816;23.226;2023-08-06T12:26:59;94323.47;;;28.31;38.96
55315;BME280;41619;42.816;23.226;2023-08-06T12:29:27;94328.50;;;28.16;38.74
55315;BME280;41619;42.816;23.226;2023-08-06T12:31:53;94329.50;;;28.08;38.91
55315;BME280;41619;42.816;23.226;2023-08-06T12:34:18;94323.91;;;28.13;38.82
55315;BME280;41619;42.816;23.226;2023-08-06T12:36:44;94324.69;;;28.14;39.06
55315;BME280;41619;42.816;23.226;2023-08-06T12:39:09;94325.91;;;28.07;39.20
55315;BME280;41619;42.816;23.226;2023-08-06T12:41:35;94315.16;;;27.94;39.81
55315;BME280;41619;42.816;23.226;2023-08-06T12:44:01;94311.78;;;27.85;39.61
55315;BME280;41619;42.816;23.226;2023-08-06T12:46:26;94300.03;;;27.81;39.57
55315;BME280;41619;42.816;23.226;2023-08-06T12:48:51;94307.44;;;27.78;39.55
55315;BME280;41619;42.816;23.226;2023-08-06T12:51:17;94293.13;;;27.76;39.81
55315;BME280;41619;42.816;23.226;2023-08-06T12:53:42;94306.66;;;27.78;39.97
55315;BME280;41619;42.816;23.226;2023-08-06T12:56:08;94317.66;;;27.81;39.90
55315;BME280;41619;42.816;23.226;2023-08-06T12:58:33;94314.09;;;27.81;39.82
55315;BME280;41619;42.816;23.226;2023-08-06T13:00:58;94314.31;;;27.77;39.60
55315;BME280;41619;42.816;23.226;2023-08-06T13:03:24;94319.44;;;27.79;39.86
55315;BME280;41619;42.816;23.226;2023-08-06T13:05:49;94309.50;;;27.83;39.80
55315;BME280;41619;42.816;23.226;2023-08-06T13:08:15;94320.53;;;27.92;39.62
55315;BME280;41619;42.816;23.226;2023-08-06T13:10:40;94331.00;;;27.97;39.57
55315;BME280;41619;42.816;23.226;2023-08-06T13:13:06;94335.81;;;27.86;39.67
55315;BME280;41619;42.816;23.226;2023-08-06T13:15:31;94329.91;;;27.72;39.56
55315;BME280;41619;42.816;23.226;2023-08-06T13:17:57;94331.41;;;27.68;39.24
55315;BME280;41619;42.816;23.226;2023-08-06T13:20:22;94336.22;;;27.62;39.38
55315;BME280;41619;42.816;23.226;2023-08-06T13:22:48;94328.47;;;27.51;39.54
55315;BME280;41619;42.816;23.226;2023-08-06T13:25:15;94332.00;;;27.40;39.48
55315;BME280;41619;42.816;23.226;2023-08-06T13:27:42;94328.59;;;27.25;39.78
55315;BME280;41619;42.816;23.226;2023-08-06T13:30:09;94330.84;;;27.15;40.33
55315;BME280;41619;42.816;23.226;2023-08-06T13:32:35;94326.19;;;27.07;40.24
55315;BME280;41619;42.816;23.226;2023-08-06T13:35:02;94317.94;;;26.98;40.36
55315;BME280;41619;42.816;23.226;2023-08-06T13:37:28;94317.06;;;26.86;39.95
55315;BME280;41619;42.816;23.226;2023-08-06T13:39:53;94323.16;;;26.79;40.36
55315;BME280;41619;42.816;23.226;2023-08-06T13:42:19;94320.81;;;26.77;40.56
55315;BME280;41619;42.816;23.226;2023-08-06T13:44:44;94318.25;;;26.74;40.98
55315;BME280;41619;42.816;23.226;2023-08-06T13:47:09;94329.69;;;26.70;41.24
55315;BME280;41619;42.816;23.226;2023-08-06T13:49:35;94326.38;;;26.72;41.22
55315;BME280;41619;42.816;23.226;2023-08-06T13:52:00;94325.38;;;26.75;41.21
55315;BME280;41619;42.816;23.226;2023-08-06T13:54:25;94329.03;;;26.81;40.95
55315;BME280;41619;42.816;23.226;2023-08-06T13:56:51;94323.19;;;26.84;40.88
55315;BME280;41619;42.816;23.226;2023-08-06T13:59:17;94323.72;;;26.89;41.36
55315;BME280;41619;42.816;23.226;2023-08-06T14:01:45;94320.69;;;26.92;41.42
55315;BME280;41619;42.816;23.226;2023-08-06T14:04:10;94326.53;;;26.89;41.58
55315;BME280;41619;42.816;23.226;2023-08-06T14:06:35;94319.59;;;26.84;41.69
55315;BME280;41619;42.816;23.226;2023-08-06T14:09:01;94314.22;;;26.80;41.68
55315;BME280;41619;42.816;23.226;2023-08-06T14:11:27;94314.44;;;26.77;41.92
55315;BME280;41619;42.816;23.226;2023-08-06T14:13:52;94312.63;;;26.74;41.79
55315;BME280;41619;42.816;23.226;2023-08-06T14:16:18;94305.44;;;26.67;41.86
55315;BME280;41619;42.816;23.226;2023-08-06T14:18:43;94308.47;;;26.64;41.78
55315;BME280;41619;42.816;23.226;2023-08-06T14:21:08;94304.84;;;26.58;41.83
55315;BME280;41619;42.816;23.226;2023-08-06T14:23:34;94320.13;;;26.56;42.05
55315;BME280;41619;42.816;23.226;2023-08-06T14:25:59;94325.22;;;26.52;42.36
55315;BME280;41619;42.816;23.226;2023-08-06T14:28:25;94330.06;;;26.52;42.23
55315;BME280;41619;42.816;23.226;2023-08-06T14:30:50;94320.59;;;26.49;42.18
55315;BME280;41619;42.816;23.226;2023-08-06T14:33:16;94325.41;;;26.43;42.15
55315;BME280;41619;42.816;23.226;2023-08-06T14:35:41;94328.97;;;26.44;42.40
55315;BME280;41619;42.816;23.226;2023-08-06T14:38:06;94317.47;;;26.42;42.54
55315;BME280;41619;42.816;23.226;2023-08-06T14:40:32;94310.31;;;26.41;42.31
55315;BME280;41619;42.816;23.226;2023-08-06T14:43:02;94323.34;;;26.44;42.39
55315;BME280;41619;42.816;23.226;2023-08-06T14:45:28;94328.75;;;26.47;42.40
55315;BME280;41619;42.816;23.226;2023-08-06T14:47:53;94320.09;;;26.51;42.29
55315;BME280;41619;42.816;23.226;2023-08-06T14:50:19;94310.94;;;26.56;42.16
55315;BME280;41619;42.816;23.226;2023-08-06T14:52:44;94310.25;;;26.61;42.06
55315;BME280;41619;42.816;23.226;2023-08-06T14:55:10;94309.25;;;26.64;42.13
55315;BME280;41619;42.816;23.226;2023-08-06T14:57:35;94317.66;;;26.64;42.15
55315;BME280;41619;42.816;23.226;2023-08-06T15:00:00;94307.22;;;26.65;42.33
55315;BME280;41619;42.816;23.226;2023-08-06T15:02:26;94313.31;;;26.63;42.00
55315;BME280;41619;42.816;23.226;2023-08-06T15:04:51;94314.31;;;26.60;42.13
55315;BME280;41619;42.816;23.226;2023-08-06T15:07:17;94310.19;;;26.55;42.20
55315;BME280;41619;42.816;23.226;2023-08-06T15:09:42;94311.69;;;26.51;42.08
55315;BME280;41619;42.816;23.226;2023-08-06T15:12:08;94312.69;;;26.48;42.06
55315;BME280;41619;42.816;23.226;2023-08-06T15:14:33;94309.06;;;26.42;41.99
55315;BME280;41619;42.816;23.226;2023-08-06T15:16:58;94306.19;;;26.36;42.44
55315;BME280;41619;42.816;23.226;2023-08-06T15:19:24;94307.16;;;26.33;42.09
55315;BME280;41619;42.816;23.226;2023-08-06T15:21:50;94308.91;;;26.31;42.41
55315;BME280;41619;42.816;23.226;2023-08-06T15:24:15;94309.41;;;26.29;42.43
55315;BME280;41619;42.816;23.226;2023-08-06T15:26:41;94305.06;;;26.28;42.36
55315;BME280;41619;42.816;23.226;2023-08-06T15:29:06;94303.31;;;26.31;42.39
55315;BME280;41619;42.816;23.226;2023-08-06T15:31:38;94305.63;;;26.32;42.53
55315;BME280;41619;42.816;23.226;2023-08-06T15:34:05;94305.41;;;26.36;42.55
55315;BME280;41619;42.816;23.226;2023-08-06T15:36:32;94306.47;;;26.38;42.71
55315;BME280;41619;42.816;23.226;2023-08-06T15:38:58;94314.38;;;26.40;42.96
55315;BME280;41619;42.816;23.226;2023-08-06T15:41:23;94321.81;;;26.43;42.48
55315;BME280;41619;42.816;23.226;2023-08-06T15:43:48;94324.91;;;26.45;42.62
55315;BME280;41619;42.816;23.226;2023-08-06T15:46:14;94322.63;;;26.49;42.72
55315;BME280;41619;42.816;23.226;2023-08-06T15:48:41;94328.50;;;26.51;42.58
55315;BME280;41619;42.816;23.226;2023-08-06T15:51:06;94335.16;;;26.53;42.62
55315;BME280;41619;42.816;23.226;2023-08-06T15:53:33;94328.56;;;26.56;42.80
55315;BME280;41619;42.816;23.226;2023-08-06T15:55:58;94339.56;;;26.60;42.69
55315;BME280;41619;42.816;23.226;2023-08-06T15:58:24;94333.66;;;26.58;42.69
55315;BME280;41619;42.816;23.226;2023-08-06T16:00:49;94332.34;;;26.53;42.64
55315;BME280;41619;42.816;23.226;2023-08-06T16:03:15;94330.25;;;26.43;42.58
55315;BME280;41619;42.816;23.226;2023-08-06T16:05:41;94342.06;;;26.32;42.81
55315;BME280;41619;42.816;23.226;2023-08-06T16:08:08;94343.44;;;26.16;42.95
55315;BME280;41619;42.816;23.226;2023-08-06T16:10:33;94343.25;;;26.00;43.00
55315;BME280;41619;42.816;23.226;2023-08-06T16:12:59;94340.56;;;25.85;42.93
55315;BME280;41619;42.816;23.226;2023-08-06T16:15:24;94343.22;;;25.74;43.26
55315;BME280;41619;42.816;23.226;2023-08-06T16:17:49;94348.91;;;25.64;43.19
55315;BME280;41619;42.816;23.226;2023-08-06T16:20:15;94355.16;;;25.54;43.46
55315;BME280;41619;42.816;23.226;2023-08-06T16:22:41;94366.00;;;25.46;43.15
55315;BME280;41619;42.816;23.226;2023-08-06T16:25:08;94366.69;;;25.41;43.48
55315;BME280;41619;42.816;23.226;2023-08-06T16:27:37;94371.75;;;25.37;43.39
55315;BME280;41619;42.816;23.226;2023-08-06T16:30:02;94369.63;;;25.32;43.14
55315;BME280;41619;42.816;23.226;2023-08-06T16:32:28;94373.88;;;25.27;43.08
55315;BME280;41619;42.816;23.226;2023-08-06T16:34:53;94370.50;;;25.23;42.92
55315;BME280;41619;42.816;23.226;2023-08-06T16:37:19;94388.28;;;25.20;42.92
55315;BME280;41619;42.816;23.226;2023-08-06T16:39:44;94378.56;;;25.16;42.96
55315;BME280;41619;42.816;23.226;2023-08-06T16:42:11;94387.94;;;25.13;43.31
55315;BME280;41619;42.816;23.226;2023-08-06T16:44:36;94386.41;;;25.12;43.10
55315;BME280;41619;42.816;23.226;2023-08-06T16:47:02;94380.97;;;25.08;42.63
55315;BME280;41619;42.816;23.226;2023-08-06T16:49:28;94387.53;;;25.05;42.88
55315;BME280;41619;42.816;23.226;2023-08-06T16:51:54;94392.56;;;25.01;42.78
55315;BME280;41619;42.816;23.226;2023-08-06T16:54:19;94405.50;;;24.98;42.66
55315;BME280;41619;42.816;23.226;2023-08-06T16:56:44;94404.16;;;24.94;42.61
55315;BME280;41619;42.816;23.226;2023-08-06T16:59:10;94399.97;;;24.89;42.80
55315;BME280;41619;42.816;23.226;2023-08-06T17:01:35;94403.75;;;24.86;43.09
55315;BME280;41619;42.816;23.226;2023-08-06T17:04:04;94411.56;;;24.82;42.79
55315;BME280;41619;42.816;23.226;2023-08-06T17:06:29;94414.56;;;24.79;42.63
55315;BME280;41619;42.816;23.226;2023-08-06T17:08:55;94417.28;;;24.73;42.96
55315;BME280;41619;42.816;23.226;2023-08-06T17:11:20;94419.47;;;24.69;42.87
55315;BME280;41619;42.816;23.226;2023-08-06T17:13:45;94420.16;;;24.64;43.06
55315;BME280;41619;42.816;23.226;2023-08-06T17:16:11;94423.34;;;24.57;43.33
55315;BME280;41619;42.816;23.226;2023-08-06T17:18:37;94431.63;;;24.51;43.48
55315;BME280;41619;42.816;23.226;2023-08-06T17:21:02;94431.81;;;24.48;43.53
55315;BME280;41619;42.816;23.226;2023-08-06T17:23:28;94434.50;;;24.42;43.33
55315;BME280;41619;42.816;23.226;2023-08-06T17:25:53;94434.72;;;24.38;43.36
55315;BME280;41619;42.816;23.226;2023-08-06T17:28:21;94444.03;;;24.35;43.82
55315;BME280;41619;42.816;23.226;2023-08-06T17:30:48;94445.47;;;24.31;44.07
55315;BME280;41619;42.816;23.226;2023-08-06T17:33:13;94438.03;;;24.28;43.91
55315;BME280;41619;42.816;23.226;2023-08-06T17:35:42;94450.66;;;24.23;44.21
55315;BME280;41619;42.816;23.226;2023-08-06T17:38:11;94454.88;;;24.19;44.14
55315;BME280;41619;42.816;23.226;2023-08-06T17:40:37;94463.13;;;24.13;44.42
55315;BME280;41619;42.816;23.226;2023-08-06T17:43:02;94462.56;;;24.09;44.57
55315;BME280;41619;42.816;23.226;2023-08-06T17:45:28;94468.81;;;24.04;44.47
55315;BME280;41619;42.816;23.226;2023-08-06T17:47:53;94476.59;;;24.00;44.65
55315;BME280;41619;42.816;23.226;2023-08-06T17:50:19;94476.75;;;23.96;44.50
55315;BME280;41619;42.816;23.226;2023-08-06T17:52:44;94485.31;;;23.93;44.43
55315;BME280;41619;42.816;23.226;2023-08-06T17:55:10;94479.91;;;23.89;44.55
55315;BME280;41619;42.816;23.226;2023-08-06T17:57:36;94495.31;;;23.84;44.33
55315;BME280;41619;42.816;23.226;2023-08-06T18:00:01;94504.66;;;23.81;44.36
55315;BME280;41619;42.816;23.226;2023-08-06T18:02:28;94504.81;;;23.78;44.24
55315;BME280;41619;42.816;23.226;2023-08-06T18:04:53;94511.81;;;23.73;44.37
55315;BME280;41619;42.816;23.226;2023-08-06T18:07:18;94516.06;;;23.69;44.95
55315;BME280;41619;42.816;23.226;2023-08-06T18:09:44;94519.50;;;23.64;45.27
55315;BME280;41619;42.816;23.226;2023-08-06T18:12:09;94527.41;;;23.56;45.76
55315;BME280;41619;42.816;23.226;2023-08-06T18:14:36;94530.84;;;23.51;45.67
55315;BME280;41619;42.816;23.226;2023-08-06T18:17:01;94528.41;;;23.44;46.42
55315;BME280;41619;42.816;23.226;2023-08-06T18:19:27;94540.66;;;23.37;46.69
55315;BME280;41619;42.816;23.226;2023-08-06T18:21:52;94540.06;;;23.33;46.90
55315;BME280;41619;42.816;23.226;2023-08-06T18:24:17;94542.41;;;23.25;47.17
55315;BME280;41619;42.816;23.226;2023-08-06T18:26:43;94547.06;;;23.19;47.25
55315;BME280;41619;42.816;23.226;2023-08-06T18:29:09;94549.25;;;23.15;47.70
55315;BME280;41619;42.816;23.226;2023-08-06T18:31:34;94554.69;;;23.10;47.73
55315;BME280;41619;42.816;23.226;2023-08-06T18:34:01;94551.91;;;23.01;47.96
55315;BME280;41619;42.816;23.226;2023-08-06T18:36:27;94554.72;;;22.91;48.44
55315;BME280;41619;42.816;23.226;2023-08-06T18:38:54;94558.28;;;22.83;48.68
55315;BME280;41619;42.816;23.226;2023-08-06T18:41:19;94562.63;;;22.75;48.76
55315;BME280;41619;42.816;23.226;2023-08-06T18:43:45;94574.72;;;22.72;48.70
55315;BME280;41619;42.816;23.226;2023-08-06T18:46:11;94566.63;;;22.64;48.93
55315;BME280;41619;42.816;23.226;2023-08-06T18:48:36;94567.25;;;22.59;49.17
55315;BME280;41619;42.816;23.226;2023-08-06T18:51:01;94575.47;;;22.54;49.14
55315;BME280;41619;42.816;23.226;2023-08-06T18:53:27;94574.06;;;22.49;49.13
55315;BME280;41619;42.816;23.226;2023-08-06T18:55:52;94575.91;;;22.43;49.58
55315;BME280;41619;42.816;23.226;2023-08-06T18:58:18;94573.75;;;22.38;49.84
55315;BME280;41619;42.816;23.226;2023-08-06T19:00:44;94577.28;;;22.29;49.99
55315;BME280;41619;42.816;23.226;2023-08-06T19:03:09;94580.84;;;22.21;50.23
55315;BME280;41619;42.816;23.226;2023-08-06T19:05:36;94584.72;;;22.14;50.52
55315;BME280;41619;42.816;23.226;2023-08-06T19:08:03;94591.03;;;22.05;50.82
55315;BME280;41619;42.816;23.226;2023-08-06T19:10:28;94594.09;;;21.98;50.91
55315;BME280;41619;42.816;23.226;2023-08-06T19:12:54;94595.44;;;21.94;51.31
55315;BME280;41619;42.816;23.226;2023-08-06T19:15:20;94597.75;;;21.86;51.31
55315;BME280;41619;42.816;23.226;2023-08-06T19:17:45;94606.25;;;21.83;51.59
55315;BME280;41619;42.816;23.226;2023-08-06T19:20:11;94658.53;;;21.79;51.92
55315;BME280;41619;42.816;23.226;2023-08-06T19:22:36;94696.75;;;21.78;52.05
55315;BME280;41619;42.816;23.226;2023-08-06T19:25:02;94720.28;;;21.77;52.23
55315;BME280;41619;42.816;23.226;2023-08-06T19:27:27;94734.31;;;21.73;52.02
55315;BME280;41619;42.816;23.226;2023-08-06T19:29:53;94738.59;;;21.65;51.78
55315;BME280;41619;42.816;23.226;2023-08-06T19:32:18;94744.69;;;21.51;51.99
55315;BME280;41619;42.816;23.226;2023-08-06T19:34:44;94739.75;;;21.33;52.22
55315;BME280;41619;42.816;23.226;2023-08-06T19:37:09;94745.16;;;21.15;52.46
55315;BME280;41619;42.816;23.226;2023-08-06T19:39:34;94738.66;;;20.96;52.53
55315;BME280;41619;42.816;23.226;2023-08-06T19:42:00;94756.63;;;20.82;52.47
55315;BME280;41619;42.816;23.226;2023-08-06T19:44:26;94771.44;;;20.67;52.76
55315;BME280;41619;42.816;23.226;2023-08-06T19:46:51;94789.66;;;20.55;53.20
55315;BME280;41619;42.816;23.226;2023-08-06T19:49:17;94805.19;;;20.40;53.75
55315;BME280;41619;42.816;23.226;2023-08-06T19:51:42;94821.19;;;20.23;54.50
55315;BME280;41619;42.816;23.226;2023-08-06T19:54:09;94833.63;;;20.06;55.28
55315;BME280;41619;42.816;23.226;2023-08-06T19:56:34;94815.91;;;19.87;56.08
55315;BME280;41619;42.816;23.226;2023-08-06T19:59:00;94829.06;;;19.70;56.50
55315;BME280;41619;42.816;23.226;2023-08-06T20:01:25;94840.25;;;19.54;57.21
55315;BME280;41619;42.816;23.226;2023-08-06T20:03:53;94849.59;;;19.44;57.50
55315;BME280;41619;42.816;23.226;2023-08-06T20:06:18;94843.53;;;19.32;58.20
55315;BME280;41619;42.816;23.226;2023-08-06T20:08:44;94840.88;;;19.13;59.05
55315;BME280;41619;42.816;23.226;2023-08-06T20:11:10;94837.00;;;18.94;59.55
55315;BME280;41619;42.816;23.226;2023-08-06T20:13:35;94853.56;;;18.81;60.19
55315;BME280;41619;42.816;23.226;2023-08-06T20:16:01;94862.13;;;18.70;60.61
55315;BME280;41619;42.816;23.226;2023-08-06T20:18:27;94857.53;;;18.64;61.06
55315;BME280;41619;42.816;23.226;2023-08-06T20:20:53;94857.66;;;18.57;61.08
55315;BME280;41619;42.816;23.226;2023-08-06T20:23:18;94860.19;;;18.51;61.65
55315;BME280;41619;42.816;23.226;2023-08-06T20:25:44;94869.09;;;18.42;61.78
55315;BME280;41619;42.816;23.226;2023-08-06T20:28:09;94862.03;;;18.38;62.17
55315;BME280;41619;42.816;23.226;2023-08-06T20:30:35;94864.56;;;18.32;62.32
55315;BME280;41619;42.816;23.226;2023-08-06T20:33:00;94869.06;;;18.26;62.48
55315;BME280;41619;42.816;23.226;2023-08-06T20:35:26;94869.19;;;18.19;62.98
55315;BME280;41619;42.816;23.226;2023-08-06T20:37:51;94867.28;;;18.16;63.03
55315;BME280;41619;42.816;23.226;2023-08-06T20:40:17;94851.25;;;18.07;63.51
55315;BME280;41619;42.816;23.226;2023-08-06T20:42:43;94847.41;;;18.01;63.83
55315;BME280;41619;42.816;23.226;2023-08-06T20:45:09;94842.38;;;17.96;64.30
55315;BME280;41619;42.816;23.226;2023-08-06T20:47:35;94846.78;;;17.94;64.34
55315;BME280;41619;42.816;23.226;2023-08-06T20:50:00;94838.13;;;17.92;64.42
55315;BME280;41619;42.816;23.226;2023-08-06T20:52:26;94846.53;;;17.88;64.55
55315;BME280;41619;42.816;23.226;2023-08-06T20:54:51;94851.75;;;17.82;64.94
55315;BME280;41619;42.816;23.226;2023-08-06T20:57:17;94857.00;;;17.77;65.24
55315;BME280;41619;42.816;23.226;2023-08-06T20:59:42;94861.41;;;17.74;65.41
55315;BME280;41619;42.816;23.226;2023-08-06T21:02:07;94869.38;;;17.72;65.34
55315;BME280;41619;42.816;23.226;2023-08-06T21:04:33;94868.66;;;17.68;65.84
55315;BME280;41619;42.816;23.226;2023-08-06T21:06:58;94880.53;;;17.65;66.00
55315;BME280;41619;42.816;23.226;2023-08-06T21:09:24;94877.47;;;17.60;65.89
55315;BME280;41619;42.816;23.226;2023-08-06T21:11:49;94872.09;;;17.52;66.05
55315;BME280;41619;42.816;23.226;2023-08-06T21:14:14;94868.97;;;17.50;66.25
55315;BME280;41619;42.816;23.226;2023-08-06T21:16:40;94860.72;;;17.47;66.56
55315;BME280;41619;42.816;23.226;2023-08-06T21:19:06;94865.53;;;17.43;66.67
55315;BME280;41619;42.816;23.226;2023-08-06T21:21:32;94861.22;;;17.42;66.85
55315;BME280;41619;42.816;23.226;2023-08-06T21:23:58;94864.34;;;17.44;66.88
55315;BME280;41619;42.816;23.226;2023-08-06T21:26:23;94869.88;;;17.44;66.92
55315;BME280;41619;42.816;23.226;2023-08-06T21:28:48;94880.16;;;17.43;67.10
55315;BME280;41619;42.816;23.226;2023-08-06T21:31:14;94892.00;;;17.44;67.38
55315;BME280;41619;42.816;23.226;2023-08-06T21:33:40;94894.06;;;17.40;67.22
55315;BME280;41619;42.816;23.226;2023-08-06T21:36:07;94894.53;;;17.35;67.63
55315;BME280;41619;42.816;23.226;2023-08-06T21:38:38;94893.09;;;17.26;67.34
55315;BME280;41619;42.816;23.226;2023-08-06T21:41:08;94916.06;;;17.23;67.59
55315;BME280;41619;42.816;23.226;2023-08-06T21:43:39;94914.94;;;17.21;67.90
55315;BME280;41619;42.816;23.226;2023-08-06T21:46:06;94919.31;;;17.18;67.82
55315;BME280;41619;42.816;23.226;2023-08-06T21:48:34;94930.44;;;17.15;68.03
55315;BME280;41619;42.816;23.226;2023-08-06T21:51:06;94927.75;;;17.11;67.98
55315;BME280;41619;42.816;23.226;2023-08-06T21:53:33;94919.59;;;17.01;68.33
55315;BME280;41619;42.816;23.226;2023-08-06T21:56:00;94925.69;;;16.92;68.43
55315;BME280;41619;42.816;23.226;2023-08-06T21:58:48;94922.66;;;16.83;68.61
55315;BME280;41619;42.816;23.226;2023-08-06T22:01:15;94918.06;;;16.73;68.68
55315;BME280;41619;42.816;23.226;2023-08-06T22:03:41;94924.84;;;16.68;68.78
55315;BME280;41619;42.816;23.226;2023-08-06T22:06:08;94922.16;;;16.61;69.14
55315;BME280;41619;42.816;23.226;2023-08-06T22:08:35;94928.94;;;16.56;69.32
55315;BME280;41619;42.816;23.226;2023-08-06T22:11:01;94939.25;;;16.52;69.27
55315;BME280;41619;42.816;23.226;2023-08-06T22:13:26;94938.09;;;16.50;69.64
55315;BME280;41619;42.816;23.226;2023-08-06T22:15:52;94947.22;;;16.47;69.77
55315;BME280;41619;42.816;23.226;2023-08-06T22:18:30;94947.56;;;16.49;69.85
55315;BME280;41619;42.816;23.226;2023-08-06T22:20:56;94954.72;;;16.46;69.93
55315;BME280;41619;42.816;23.226;2023-08-06T22:23:22;94952.38;;;16.45;70.15
55315;BME280;41619;42.816;23.226;2023-08-06T22:25:48;94956.34;;;16.44;70.12
55315;BME280;41619;42.816;23.226;2023-08-06T22:28:13;94954.00;;;16.42;70.21
55315;BME280;41619;42.816;23.226;2023-08-06T22:30:38;94954.81;;;16.39;70.32
55315;BME280;41619;42.816;23.226;2023-08-06T22:33:04;94963.53;;;16.38;70.44
55315;BME280;41619;42.816;23.226;2023-08-06T22:35:29;94957.59;;;16.39;70.42
55315;BME280;41619;42.816;23.226;2023-08-06T22:37:54;94959.19;;;16.37;70.33
55315;BME280;41619;42.816;23.226;2023-08-06T22:40:20;94954.94;;;16.28;70.58
55315;BME280;41619;42.816;23.226;2023-08-06T22:42:45;94957.75;;;16.25;70.66
55315;BME280;41619;42.816;23.226;2023-08-06T22:45:12;94966.88;;;16.22;70.76
55315;BME280;41619;42.816;23.226;2023-08-06T22:47:38;94964.94;;;16.19;70.86
55315;BME280;41619;42.816;23.226;2023-08-06T22:50:05;94964.56;;;16.17;70.92
55315;BME280;41619;42.816;23.226;2023-08-06T22:52:31;94972.84;;;16.17;71.03
55315;BME280;41619;42.816;23.226;2023-08-06T22:54:56;94971.69;;;16.14;71.12
55315;BME280;41619;42.816;23.226;2023-08-06T22:57:22;94981.13;;;16.17;71.15
55315;BME280;41619;42.816;23.226;2023-08-06T22:59:47;94976.34;;;16.21;71.34
55315;BME280;41619;42.816;23.226;2023-08-06T23:02:12;94981.03;;;16.24;71.07
55315;BME280;41619;42.816;23.226;2023-08-06T23:04:38;94981.41;;;16.26;71.19
55315;BME280;41619;42.816;23.226;2023-08-06T23:07:04;94979.03;;;16.28;71.24
55315;BME280;41619;42.816;23.226;2023-08-06T23:09:29;94978.19;;;16.31;71.39
55315;BME280;41619;42.816;23.226;2023-08-06T23:11:54;94976.63;;;16.30;71.34
55315;BME280;41619;42.816;23.226;2023-08-06T23:14:20;94974.66;;;16.30;71.28
55315;BME280;41619;42.816;23.226;2023-08-06T23:16:46;94979.84;;;16.25;71.25
55315;BME280;41619;42.816;23.226;2023-08-06T23:19:11;94974.75;;;16.23;71.52
55315;BME280;41619;42.816;23.226;2023-08-06T23:21:37;94976.72;;;16.23;71.59
55315;BME280;41619;42.816;23.226;2023-08-06T23:24:02;94981.50;;;16.19;71.75
55315;BME280;41619;42.816;23.226;2023-08-06T23:26:28;94975.63;;;16.13;71.82
55315;BME280;41619;42.816;23.226;2023-08-06T23:28:53;94977.66;;;16.09;72.28
55315;BME280;41619;42.816;23.226;2023-08-06T23:31:19;94977.66;;;16.09;72.11
55315;BME280;41619;42.816;23.226;2023-08-06T23:33:45;94973.75;;;16.07;72.09
55315;BME280;41619;42.816;23.226;2023-08-06T23:36:11;94965.00;;;16.12;72.43
55315;BME280;41619;42.816;23.226;2023-08-06T23:38:36;94972.03;;;16.16;72.39
55315;BME280;41619;42.816;23.226;2023-08-06T23:41:01;94968.50;;;16.19;72.58
55315;BME280;41619;42.816;23.226;2023-08-06T23:43:27;94960.97;;;16.20;72.49
55315;BME280;41619;42.816;23.226;2023-08-06T23:45:52;94963.34;;;16.21;72.70
55315;BME280;41619;42.816;23.226;2023-08-06T23:48:18;94957.81;;;16.21;72.59
55315;BME280;41619;42.816;23.226;2023-08-06T23:50:44;94968.50;;;16.19;72.37
55315;BME280;41619;42.816;23.226;2023-08-06T23:53:10;94970.91;;;16.14;72.60
55315;BME280;41619;42.816;23.226;2023-08-06T23:55:35;94975.63;;;16.13;72.59
55315;BME280;41619;42.816;23.226;2023-08-06T23:58:00;94983.13;;;16.13;72.50
